sensor_id;sensor_type;location;lat;lon;timestamp;P1;durP1;ratioP1;P2;durP2;ratioP2
16770;SDS011;8503;52.472;13.344;2022-12-24T00:00:46;7.18;;;4.20;;
16770;SDS011;8503;52.472;13.344;2022-12-24T00:02:10;3.60;;;2.13;;
16770;SDS011;8503;52.472;13.344;2022-12-24T00:03:34;5.72;;;2.17;;
16770;SDS011;8503;52.472;13.344;2022-12-24T00:04:58;3.00;;;2.28;;
16770;SDS011;8503;52.472;13.344;2022-12-24T00:06:22;7.00;;;4.20;;
16770;SDS011;8503;52.472;13.344;2022-12-24T00:07:46;6.80;;;3.80;;
16770;SDS011;8503;52.472;13.344;2022-12-24T00:09:08;9.05;;;3.40;;
16770;SDS011;8503;52.472;13.344;2022-12-24T00:10:32;7.45;;;4.10;;
16770;SDS011;8503;52.472;13.344;2022-12-24T00:11:55;3.95;;;3.05;;
16770;SDS011;8503;52.472;13.344;2022-12-24T00:13:19;4.93;;;3.13;;
16770;SDS011;8503;52.472;13.344;2022-12-24T00:14:42;6.15;;;3.10;;
16770;SDS011;8503;52.472;13.344;2022-12-24T00:16:05;4.90;;;3.03;;
16770;SDS011;8503;52.472;13.344;2022-12-24T00:17:29;6.63;;;3.40;;
16770;SDS011;8503;52.472;13.344;2022-12-24T00:18:52;6.97;;;3.75;;
16770;SDS011;8503;52.472;13.344;2022-12-24T00:20:16;6.88;;;3.85;;
16770;SDS011;8503;52.472;13.344;2022-12-24T00:21:38;5.05;;;3.83;;
16770;SDS011;8503;52.472;13.344;2022-12-24T00:23:02;5.35;;;3.88;;
16770;SDS011;8503;52.472;13.344;2022-12-24T00:24:25;5.22;;;3.28;;
16770;SDS011;8503;52.472;13.344;2022-12-24T00:25:49;10.55;;;4.40;;
16770;SDS011;8503;52.472;13.344;2022-12-24T00:27:11;5.97;;;3.10;;
16770;SDS011;8503;52.472;13.344;2022-12-24T00:28:35;7.47;;;4.90;;
16770;SDS011;8503;52.472;13.344;2022-12-24T00:29:58;9.02;;;4.25;;
16770;SDS011;8503;52.472;13.344;2022-12-24T00:31:21;7.25;;;4.35;;
16770;SDS011;8503;52.472;13.344;2022-12-24T00:32:46;5.75;;;3.60;;
16770;SDS011;8503;52.472;13.344;2022-12-24T00:34:08;7.35;;;3.75;;
16770;SDS011;8503;52.472;13.344;2022-12-24T00:35:32;5.82;;;3.78;;
16770;SDS011;8503;52.472;13.344;2022-12-24T00:36:54;5.70;;;3.60;;
16770;SDS011;8503;52.472;13.344;2022-12-24T00:38:18;7.55;;;4.00;;
16770;SDS011;8503;52.472;13.344;2022-12-24T00:39:40;7.82;;;3.90;;
16770;SDS011;8503;52.472;13.344;2022-12-24T00:41:04;6.00;;;3.30;;
16770;SDS011;8503;52.472;13.344;2022-12-24T00:42:45;7.72;;;3.95;;
16770;SDS011;8503;52.472;13.344;2022-12-24T00:44:08;5.55;;;3.28;;
16770;SDS011;8503;52.472;13.344;2022-12-24T00:45:31;9.13;;;4.25;;
16770;SDS011;8503;52.472;13.344;2022-12-24T00:46:54;6.20;;;3.97;;
16770;SDS011;8503;52.472;13.344;2022-12-24T00:48:19;6.97;;;4.10;;
16770;SDS011;8503;52.472;13.344;2022-12-24T00:49:43;6.07;;;3.45;;
16770;SDS011;8503;52.472;13.344;2022-12-24T00:51:06;6.72;;;3.90;;
16770;SDS011;8503;52.472;13.344;2022-12-24T00:52:29;7.72;;;3.88;;
16770;SDS011;8503;52.472;13.344;2022-12-24T00:53:52;5.50;;;3.28;;
16770;SDS011;8503;52.472;13.344;2022-12-24T00:55:15;5.32;;;3.38;;
16770;SDS011;8503;52.472;13.344;2022-12-24T00:56:38;10.57;;;4.45;;
16770;SDS011;8503;52.472;13.344;2022-12-24T00:58:01;6.90;;;4.30;;
16770;SDS011;8503;52.472;13.344;2022-12-24T00:59:25;6.25;;;3.42;;
16770;SDS011;8503;52.472;13.344;2022-12-24T01:00:47;6.20;;;3.28;;
16770;SDS011;8503;52.472;13.344;2022-12-24T01:02:10;7.90;;;3.90;;
16770;SDS011;8503;52.472;13.344;2022-12-24T01:03:35;4.90;;;3.08;;
16770;SDS011;8503;52.472;13.344;2022-12-24T01:04:58;5.15;;;3.63;;
16770;SDS011;8503;52.472;13.344;2022-12-24T01:06:38;6.20;;;4.18;;
16770;SDS011;8503;52.472;13.344;2022-12-24T01:08:01;6.70;;;4.22;;
16770;SDS011;8503;52.472;13.344;2022-12-24T01:09:24;9.77;;;4.35;;
16770;SDS011;8503;52.472;13.344;2022-12-24T01:10:48;9.10;;;3.72;;
16770;SDS011;8503;52.472;13.344;2022-12-24T01:12:10;6.30;;;3.45;;
16770;SDS011;8503;52.472;13.344;2022-12-24T01:13:33;8.77;;;3.55;;
16770;SDS011;8503;52.472;13.344;2022-12-24T01:14:56;7.18;;;3.90;;
16770;SDS011;8503;52.472;13.344;2022-12-24T01:16:20;4.50;;;2.55;;
16770;SDS011;8503;52.472;13.344;2022-12-24T01:17:42;6.07;;;3.58;;
16770;SDS011;8503;52.472;13.344;2022-12-24T01:19:07;5.70;;;3.35;;
16770;SDS011;8503;52.472;13.344;2022-12-24T01:20:31;6.90;;;3.65;;
16770;SDS011;8503;52.472;13.344;2022-12-24T01:21:53;11.50;;;3.83;;
16770;SDS011;8503;52.472;13.344;2022-12-24T01:23:17;5.30;;;3.75;;
16770;SDS011;8503;52.472;13.344;2022-12-24T01:24:42;8.45;;;4.03;;
16770;SDS011;8503;52.472;13.344;2022-12-24T01:26:05;3.20;;;2.38;;
16770;SDS011;8503;52.472;13.344;2022-12-24T01:27:28;2.65;;;2.20;;
16770;SDS011;8503;52.472;13.344;2022-12-24T01:28:53;5.45;;;2.88;;
16770;SDS011;8503;52.472;13.344;2022-12-24T01:30:17;7.03;;;3.35;;
16770;SDS011;8503;52.472;13.344;2022-12-24T01:31:41;5.32;;;3.45;;
16770;SDS011;8503;52.472;13.344;2022-12-24T01:33:03;5.78;;;3.15;;
16770;SDS011;8503;52.472;13.344;2022-12-24T01:34:28;4.18;;;3.03;;
16770;SDS011;8503;52.472;13.344;2022-12-24T01:35:52;5.15;;;2.28;;
16770;SDS011;8503;52.472;13.344;2022-12-24T01:37:14;5.93;;;3.20;;
16770;SDS011;8503;52.472;13.344;2022-12-24T01:38:38;4.68;;;2.65;;
16770;SDS011;8503;52.472;13.344;2022-12-24T01:40:01;4.38;;;3.15;;
16770;SDS011;8503;52.472;13.344;2022-12-24T01:41:42;4.47;;;2.40;;
16770;SDS011;8503;52.472;13.344;2022-12-24T01:43:23;4.63;;;3.38;;
16770;SDS011;8503;52.472;13.344;2022-12-24T01:44:49;4.05;;;2.58;;
16770;SDS011;8503;52.472;13.344;2022-12-24T01:46:15;7.50;;;3.33;;
16770;SDS011;8503;52.472;13.344;2022-12-24T01:47:40;2.92;;;2.20;;
16770;SDS011;8503;52.472;13.344;2022-12-24T01:49:04;4.55;;;3.03;;
16770;SDS011;8503;52.472;13.344;2022-12-24T01:50:28;6.78;;;3.15;;
16770;SDS011;8503;52.472;13.344;2022-12-24T01:51:53;6.38;;;3.85;;
16770;SDS011;8503;52.472;13.344;2022-12-24T01:53:19;3.35;;;2.40;;
16770;SDS011;8503;52.472;13.344;2022-12-24T01:54:43;9.15;;;3.38;;
16770;SDS011;8503;52.472;13.344;2022-12-24T01:56:08;5.47;;;3.40;;
16770;SDS011;8503;52.472;13.344;2022-12-24T01:57:32;5.18;;;2.80;;
16770;SDS011;8503;52.472;13.344;2022-12-24T01:58:59;7.53;;;2.53;;
16770;SDS011;8503;52.472;13.344;2022-12-24T02:00:26;6.85;;;3.05;;
16770;SDS011;8503;52.472;13.344;2022-12-24T02:01:48;3.72;;;2.78;;
16770;SDS011;8503;52.472;13.344;2022-12-24T02:03:13;6.72;;;3.05;;
16770;SDS011;8503;52.472;13.344;2022-12-24T02:04:37;7.57;;;3.35;;
16770;SDS011;8503;52.472;13.344;2022-12-24T02:06:04;4.90;;;2.78;;
16770;SDS011;8503;52.472;13.344;2022-12-24T02:07:27;4.82;;;2.85;;
16770;SDS011;8503;52.472;13.344;2022-12-24T02:08:50;8.68;;;3.83;;
16770;SDS011;8503;52.472;13.344;2022-12-24T02:10:15;5.93;;;3.17;;
16770;SDS011;8503;52.472;13.344;2022-12-24T02:11:37;5.80;;;3.75;;
16770;SDS011;8503;52.472;13.344;2022-12-24T02:13:04;6.70;;;3.83;;
16770;SDS011;8503;52.472;13.344;2022-12-24T02:14:27;6.47;;;3.15;;
16770;SDS011;8503;52.472;13.344;2022-12-24T02:15:55;5.35;;;3.35;;
16770;SDS011;8503;52.472;13.344;2022-12-24T02:17:25;9.32;;;4.10;;
16770;SDS011;8503;52.472;13.344;2022-12-24T02:18:53;9.15;;;3.63;;
16770;SDS011;8503;52.472;13.344;2022-12-24T02:20:38;6.05;;;3.83;;
16770;SDS011;8503;52.472;13.344;2022-12-24T02:22:12;6.35;;;3.50;;
16770;SDS011;8503;52.472;13.344;2022-12-24T02:25:42;5.85;;;3.67;;
16770;SDS011;8503;52.472;13.344;2022-12-24T02:27:16;5.22;;;2.95;;
16770;SDS011;8503;52.472;13.344;2022-12-24T02:28:53;6.15;;;3.80;;
16770;SDS011;8503;52.472;13.344;2022-12-24T02:30:26;6.72;;;4.35;;
16770;SDS011;8503;52.472;13.344;2022-12-24T02:31:54;4.85;;;2.95;;
16770;SDS011;8503;52.472;13.344;2022-12-24T02:33:23;6.63;;;3.67;;
16770;SDS011;8503;52.472;13.344;2022-12-24T02:34:50;6.30;;;3.30;;
16770;SDS011;8503;52.472;13.344;2022-12-24T02:36:18;6.18;;;3.58;;
16770;SDS011;8503;52.472;13.344;2022-12-24T02:37:46;5.20;;;3.65;;
16770;SDS011;8503;52.472;13.344;2022-12-24T02:39:11;5.47;;;3.78;;
16770;SDS011;8503;52.472;13.344;2022-12-24T02:40:39;6.90;;;3.67;;
16770;SDS011;8503;52.472;13.344;2022-12-24T02:42:07;6.60;;;4.22;;
16770;SDS011;8503;52.472;13.344;2022-12-24T02:43:31;6.65;;;4.15;;
16770;SDS011;8503;52.472;13.344;2022-12-24T02:44:57;7.43;;;4.22;;
16770;SDS011;8503;52.472;13.344;2022-12-24T02:46:24;6.70;;;4.28;;
16770;SDS011;8503;52.472;13.344;2022-12-24T02:47:49;7.38;;;4.50;;
16770;SDS011;8503;52.472;13.344;2022-12-24T02:49:12;6.25;;;4.30;;
16770;SDS011;8503;52.472;13.344;2022-12-24T02:50:36;6.22;;;4.18;;
16770;SDS011;8503;52.472;13.344;2022-12-24T02:51:58;9.45;;;5.30;;
16770;SDS011;8503;52.472;13.344;2022-12-24T02:53:22;7.97;;;4.05;;
16770;SDS011;8503;52.472;13.344;2022-12-24T02:54:44;17.27;;;4.70;;
16770;SDS011;8503;52.472;13.344;2022-12-24T02:56:22;8.80;;;5.00;;
16770;SDS011;8503;52.472;13.344;2022-12-24T02:58:09;7.50;;;4.75;;
16770;SDS011;8503;52.472;13.344;2022-12-24T02:59:50;7.72;;;4.22;;
16770;SDS011;8503;52.472;13.344;2022-12-24T03:01:21;6.45;;;4.00;;
16770;SDS011;8503;52.472;13.344;2022-12-24T03:03:07;10.80;;;5.28;;
16770;SDS011;8503;52.472;13.344;2022-12-24T03:04:41;8.35;;;4.22;;
16770;SDS011;8503;52.472;13.344;2022-12-24T03:06:10;8.48;;;4.43;;
16770;SDS011;8503;52.472;13.344;2022-12-24T03:07:39;7.95;;;5.10;;
16770;SDS011;8503;52.472;13.344;2022-12-24T03:09:07;7.47;;;4.85;;
16770;SDS011;8503;52.472;13.344;2022-12-24T03:10:35;7.63;;;4.90;;
16770;SDS011;8503;52.472;13.344;2022-12-24T03:12:04;9.32;;;5.43;;
16770;SDS011;8503;52.472;13.344;2022-12-24T03:13:30;8.43;;;4.60;;
16770;SDS011;8503;52.472;13.344;2022-12-24T03:14:54;7.03;;;4.78;;
16770;SDS011;8503;52.472;13.344;2022-12-24T03:16:18;9.57;;;4.75;;
16770;SDS011;8503;52.472;13.344;2022-12-24T03:17:47;9.15;;;5.00;;
16770;SDS011;8503;52.472;13.344;2022-12-24T03:19:10;8.43;;;4.78;;
16770;SDS011;8503;52.472;13.344;2022-12-24T03:20:34;9.07;;;5.43;;
16770;SDS011;8503;52.472;13.344;2022-12-24T03:21:59;9.25;;;4.85;;
16770;SDS011;8503;52.472;13.344;2022-12-24T03:23:25;5.78;;;4.15;;
16770;SDS011;8503;52.472;13.344;2022-12-24T03:24:49;9.30;;;4.70;;
16770;SDS011;8503;52.472;13.344;2022-12-24T03:26:12;6.53;;;4.28;;
16770;SDS011;8503;52.472;13.344;2022-12-24T03:27:38;8.35;;;4.47;;
16770;SDS011;8503;52.472;13.344;2022-12-24T03:29:03;9.57;;;5.25;;
16770;SDS011;8503;52.472;13.344;2022-12-24T03:30:26;9.48;;;5.40;;
16770;SDS011;8503;52.472;13.344;2022-12-24T03:31:51;8.80;;;5.35;;
16770;SDS011;8503;52.472;13.344;2022-12-24T03:33:20;10.02;;;5.43;;
16770;SDS011;8503;52.472;13.344;2022-12-24T03:34:43;10.63;;;5.00;;
16770;SDS011;8503;52.472;13.344;2022-12-24T03:36:08;8.13;;;4.90;;
16770;SDS011;8503;52.472;13.344;2022-12-24T03:37:31;7.15;;;3.83;;
16770;SDS011;8503;52.472;13.344;2022-12-24T03:38:54;6.90;;;4.55;;
16770;SDS011;8503;52.472;13.344;2022-12-24T03:40:17;6.97;;;4.53;;
16770;SDS011;8503;52.472;13.344;2022-12-24T03:41:41;9.10;;;5.28;;
16770;SDS011;8503;52.472;13.344;2022-12-24T03:43:04;10.27;;;4.85;;
16770;SDS011;8503;52.472;13.344;2022-12-24T03:44:27;10.10;;;5.55;;
16770;SDS011;8503;52.472;13.344;2022-12-24T03:45:51;8.90;;;4.22;;
16770;SDS011;8503;52.472;13.344;2022-12-24T03:47:13;9.85;;;5.10;;
16770;SDS011;8503;52.472;13.344;2022-12-24T03:48:38;5.85;;;3.80;;
16770;SDS011;8503;52.472;13.344;2022-12-24T03:50:00;6.95;;;4.03;;
16770;SDS011;8503;52.472;13.344;2022-12-24T03:51:24;8.27;;;4.43;;
16770;SDS011;8503;52.472;13.344;2022-12-24T03:52:47;9.02;;;5.40;;
16770;SDS011;8503;52.472;13.344;2022-12-24T03:54:10;7.80;;;5.25;;
16770;SDS011;8503;52.472;13.344;2022-12-24T03:55:34;10.63;;;5.50;;
16770;SDS011;8503;52.472;13.344;2022-12-24T03:56:56;9.23;;;5.90;;
16770;SDS011;8503;52.472;13.344;2022-12-24T03:58:20;11.10;;;5.40;;
16770;SDS011;8503;52.472;13.344;2022-12-24T03:59:42;13.63;;;6.47;;
16770;SDS011;8503;52.472;13.344;2022-12-24T04:01:06;10.38;;;5.80;;
16770;SDS011;8503;52.472;13.344;2022-12-24T04:02:29;7.55;;;4.88;;
16770;SDS011;8503;52.472;13.344;2022-12-24T04:03:55;7.50;;;4.50;;
16770;SDS011;8503;52.472;13.344;2022-12-24T04:05:18;7.82;;;3.80;;
16770;SDS011;8503;52.472;13.344;2022-12-24T04:06:42;9.85;;;5.50;;
16770;SDS011;8503;52.472;13.344;2022-12-24T04:08:04;13.95;;;5.45;;
16770;SDS011;8503;52.472;13.344;2022-12-24T04:09:28;8.63;;;4.82;;
16770;SDS011;8503;52.472;13.344;2022-12-24T04:10:50;8.05;;;4.13;;
16770;SDS011;8503;52.472;13.344;2022-12-24T04:12:14;10.45;;;5.50;;
16770;SDS011;8503;52.472;13.344;2022-12-24T04:13:37;9.93;;;5.93;;
16770;SDS011;8503;52.472;13.344;2022-12-24T04:15:02;10.52;;;4.97;;
16770;SDS011;8503;52.472;13.344;2022-12-24T04:16:27;11.48;;;5.03;;
16770;SDS011;8503;52.472;13.344;2022-12-24T04:17:50;9.48;;;5.63;;
16770;SDS011;8503;52.472;13.344;2022-12-24T04:19:14;8.30;;;5.13;;
16770;SDS011;8503;52.472;13.344;2022-12-24T04:20:37;10.63;;;6.05;;
16770;SDS011;8503;52.472;13.344;2022-12-24T04:22:00;6.88;;;4.38;;
16770;SDS011;8503;52.472;13.344;2022-12-24T04:23:23;11.77;;;5.95;;
16770;SDS011;8503;52.472;13.344;2022-12-24T04:24:46;11.27;;;5.72;;
16770;SDS011;8503;52.472;13.344;2022-12-24T04:26:10;8.82;;;5.28;;
16770;SDS011;8503;52.472;13.344;2022-12-24T04:27:34;9.23;;;5.45;;
16770;SDS011;8503;52.472;13.344;2022-12-24T04:28:57;10.52;;;5.75;;
16770;SDS011;8503;52.472;13.344;2022-12-24T04:30:20;8.35;;;5.00;;
16770;SDS011;8503;52.472;13.344;2022-12-24T04:31:44;9.57;;;5.53;;
16770;SDS011;8503;52.472;13.344;2022-12-24T04:33:07;10.85;;;6.05;;
16770;SDS011;8503;52.472;13.344;2022-12-24T04:34:31;9.05;;;5.78;;
16770;SDS011;8503;52.472;13.344;2022-12-24T04:35:56;13.75;;;6.30;;
16770;SDS011;8503;52.472;13.344;2022-12-24T04:37:21;8.25;;;5.28;;
16770;SDS011;8503;52.472;13.344;2022-12-24T04:38:45;10.70;;;5.80;;
16770;SDS011;8503;52.472;13.344;2022-12-24T04:40:09;7.88;;;5.07;;
16770;SDS011;8503;52.472;13.344;2022-12-24T04:41:33;8.75;;;5.43;;
16770;SDS011;8503;52.472;13.344;2022-12-24T04:42:55;9.77;;;5.55;;
16770;SDS011;8503;52.472;13.344;2022-12-24T04:44:19;9.80;;;5.78;;
16770;SDS011;8503;52.472;13.344;2022-12-24T04:45:42;11.75;;;6.28;;
16770;SDS011;8503;52.472;13.344;2022-12-24T04:47:05;9.93;;;5.60;;
16770;SDS011;8503;52.472;13.344;2022-12-24T04:48:27;10.30;;;6.10;;
16770;SDS011;8503;52.472;13.344;2022-12-24T04:49:52;9.23;;;5.88;;
16770;SDS011;8503;52.472;13.344;2022-12-24T04:51:15;7.45;;;5.13;;
16770;SDS011;8503;52.472;13.344;2022-12-24T04:52:39;11.43;;;5.15;;
16770;SDS011;8503;52.472;13.344;2022-12-24T04:54:02;12.52;;;5.97;;
16770;SDS011;8503;52.472;13.344;2022-12-24T04:55:25;11.80;;;5.70;;
16770;SDS011;8503;52.472;13.344;2022-12-24T04:56:49;11.38;;;6.07;;
16770;SDS011;8503;52.472;13.344;2022-12-24T04:58:11;9.20;;;5.55;;
16770;SDS011;8503;52.472;13.344;2022-12-24T04:59:35;10.52;;;5.93;;
16770;SDS011;8503;52.472;13.344;2022-12-24T05:01:01;10.18;;;5.53;;
16770;SDS011;8503;52.472;13.344;2022-12-24T05:02:25;11.20;;;5.68;;
16770;SDS011;8503;52.472;13.344;2022-12-24T05:03:49;10.50;;;6.05;;
16770;SDS011;8503;52.472;13.344;2022-12-24T05:05:15;9.85;;;5.75;;
16770;SDS011;8503;52.472;13.344;2022-12-24T05:06:38;14.43;;;6.55;;
16770;SDS011;8503;52.472;13.344;2022-12-24T05:08:01;11.05;;;6.75;;
16770;SDS011;8503;52.472;13.344;2022-12-24T05:09:24;11.90;;;5.68;;
16770;SDS011;8503;52.472;13.344;2022-12-24T05:10:53;8.98;;;5.22;;
16770;SDS011;8503;52.472;13.344;2022-12-24T05:12:16;12.90;;;5.50;;
16770;SDS011;8503;52.472;13.344;2022-12-24T05:13:40;10.45;;;5.97;;
16770;SDS011;8503;52.472;13.344;2022-12-24T05:15:08;7.70;;;4.90;;
16770;SDS011;8503;52.472;13.344;2022-12-24T05:16:30;9.32;;;5.15;;
16770;SDS011;8503;52.472;13.344;2022-12-24T05:17:54;10.30;;;5.82;;
16770;SDS011;8503;52.472;13.344;2022-12-24T05:19:18;8.15;;;4.75;;
16770;SDS011;8503;52.472;13.344;2022-12-24T05:20:43;11.05;;;5.30;;
16770;SDS011;8503;52.472;13.344;2022-12-24T05:22:06;11.15;;;6.35;;
16770;SDS011;8503;52.472;13.344;2022-12-24T05:23:47;10.63;;;5.38;;
16770;SDS011;8503;52.472;13.344;2022-12-24T05:25:30;9.45;;;5.35;;
16770;SDS011;8503;52.472;13.344;2022-12-24T05:27:15;10.18;;;5.50;;
16770;SDS011;8503;52.472;13.344;2022-12-24T05:28:39;12.27;;;6.10;;
16770;SDS011;8503;52.472;13.344;2022-12-24T05:30:01;13.82;;;5.68;;
16770;SDS011;8503;52.472;13.344;2022-12-24T05:31:26;14.18;;;6.32;;
16770;SDS011;8503;52.472;13.344;2022-12-24T05:32:49;8.50;;;5.30;;
16770;SDS011;8503;52.472;13.344;2022-12-24T05:34:13;12.05;;;5.72;;
16770;SDS011;8503;52.472;13.344;2022-12-24T05:35:37;12.85;;;5.85;;
16770;SDS011;8503;52.472;13.344;2022-12-24T05:37:01;13.75;;;6.82;;
16770;SDS011;8503;52.472;13.344;2022-12-24T05:38:25;9.90;;;5.85;;
16770;SDS011;8503;52.472;13.344;2022-12-24T05:39:47;13.32;;;6.85;;
16770;SDS011;8503;52.472;13.344;2022-12-24T05:41:11;10.57;;;6.25;;
16770;SDS011;8503;52.472;13.344;2022-12-24T05:42:33;12.07;;;6.03;;
16770;SDS011;8503;52.472;13.344;2022-12-24T05:43:57;12.65;;;6.50;;
16770;SDS011;8503;52.472;13.344;2022-12-24T05:45:19;8.48;;;6.03;;
16770;SDS011;8503;52.472;13.344;2022-12-24T05:46:43;9.73;;;6.43;;
16770;SDS011;8503;52.472;13.344;2022-12-24T05:48:07;12.60;;;5.75;;
16770;SDS011;8503;52.472;13.344;2022-12-24T05:49:29;10.55;;;6.38;;
16770;SDS011;8503;52.472;13.344;2022-12-24T05:50:53;9.27;;;4.88;;
16770;SDS011;8503;52.472;13.344;2022-12-24T05:52:17;13.18;;;6.65;;
16770;SDS011;8503;52.472;13.344;2022-12-24T05:53:40;8.27;;;5.68;;
16770;SDS011;8503;52.472;13.344;2022-12-24T05:55:04;9.30;;;6.15;;
16770;SDS011;8503;52.472;13.344;2022-12-24T05:56:27;9.57;;;6.05;;
16770;SDS011;8503;52.472;13.344;2022-12-24T05:57:51;8.65;;;4.32;;
16770;SDS011;8503;52.472;13.344;2022-12-24T05:59:13;13.82;;;6.88;;
16770;SDS011;8503;52.472;13.344;2022-12-24T06:00:37;11.43;;;6.65;;
16770;SDS011;8503;52.472;13.344;2022-12-24T06:01:59;10.65;;;5.40;;
16770;SDS011;8503;52.472;13.344;2022-12-24T06:03:23;12.43;;;6.13;;
16770;SDS011;8503;52.472;13.344;2022-12-24T06:04:45;12.27;;;7.15;;
16770;SDS011;8503;52.472;13.344;2022-12-24T06:06:10;12.85;;;6.40;;
16770;SDS011;8503;52.472;13.344;2022-12-24T06:07:35;10.80;;;6.45;;
16770;SDS011;8503;52.472;13.344;2022-12-24T06:08:59;14.18;;;7.80;;
16770;SDS011;8503;52.472;13.344;2022-12-24T06:10:21;11.88;;;6.05;;
16770;SDS011;8503;52.472;13.344;2022-12-24T06:11:45;9.63;;;6.10;;
16770;SDS011;8503;52.472;13.344;2022-12-24T06:13:08;13.50;;;6.07;;
16770;SDS011;8503;52.472;13.344;2022-12-24T06:14:30;12.80;;;7.32;;
16770;SDS011;8503;52.472;13.344;2022-12-24T06:15:54;19.05;;;7.70;;
16770;SDS011;8503;52.472;13.344;2022-12-24T06:17:17;11.73;;;6.82;;
16770;SDS011;8503;52.472;13.344;2022-12-24T06:18:41;14.73;;;7.00;;
16770;SDS011;8503;52.472;13.344;2022-12-24T06:20:04;10.88;;;7.13;;
16770;SDS011;8503;52.472;13.344;2022-12-24T06:21:28;11.65;;;6.88;;
16770;SDS011;8503;52.472;13.344;2022-12-24T06:22:53;11.23;;;6.97;;
16770;SDS011;8503;52.472;13.344;2022-12-24T06:24:15;11.00;;;6.93;;
16770;SDS011;8503;52.472;13.344;2022-12-24T06:25:39;10.73;;;6.82;;
16770;SDS011;8503;52.472;13.344;2022-12-24T06:27:01;12.77;;;7.38;;
16770;SDS011;8503;52.472;13.344;2022-12-24T06:28:25;12.43;;;7.13;;
16770;SDS011;8503;52.472;13.344;2022-12-24T06:29:47;14.60;;;8.20;;
16770;SDS011;8503;52.472;13.344;2022-12-24T06:31:12;13.65;;;7.38;;
16770;SDS011;8503;52.472;13.344;2022-12-24T06:32:39;14.43;;;8.13;;
16770;SDS011;8503;52.472;13.344;2022-12-24T06:34:01;9.57;;;5.60;;
16770;SDS011;8503;52.472;13.344;2022-12-24T06:35:24;12.10;;;6.65;;
16770;SDS011;8503;52.472;13.344;2022-12-24T06:36:47;12.63;;;6.65;;
16770;SDS011;8503;52.472;13.344;2022-12-24T06:38:12;11.35;;;7.20;;
16770;SDS011;8503;52.472;13.344;2022-12-24T06:39:35;12.35;;;7.28;;
16770;SDS011;8503;52.472;13.344;2022-12-24T06:40:59;12.38;;;7.50;;
16770;SDS011;8503;52.472;13.344;2022-12-24T06:42:25;13.48;;;7.18;;
16770;SDS011;8503;52.472;13.344;2022-12-24T06:43:49;12.68;;;6.45;;
16770;SDS011;8503;52.472;13.344;2022-12-24T06:45:12;12.77;;;7.45;;
16770;SDS011;8503;52.472;13.344;2022-12-24T06:46:36;10.95;;;6.70;;
16770;SDS011;8503;52.472;13.344;2022-12-24T06:47:59;10.18;;;6.47;;
16770;SDS011;8503;52.472;13.344;2022-12-24T06:49:22;11.93;;;6.63;;
16770;SDS011;8503;52.472;13.344;2022-12-24T06:50:46;13.70;;;7.68;;
16770;SDS011;8503;52.472;13.344;2022-12-24T06:52:09;11.02;;;6.85;;
16770;SDS011;8503;52.472;13.344;2022-12-24T06:53:34;13.85;;;6.18;;
16770;SDS011;8503;52.472;13.344;2022-12-24T06:54:57;13.15;;;6.20;;
16770;SDS011;8503;52.472;13.344;2022-12-24T06:56:21;12.25;;;7.13;;
16770;SDS011;8503;52.472;13.344;2022-12-24T06:57:43;12.65;;;7.55;;
16770;SDS011;8503;52.472;13.344;2022-12-24T06:59:07;11.13;;;6.68;;
16770;SDS011;8503;52.472;13.344;2022-12-24T07:00:30;12.70;;;6.85;;
16770;SDS011;8503;52.472;13.344;2022-12-24T07:01:53;12.60;;;6.95;;
16770;SDS011;8503;52.472;13.344;2022-12-24T07:03:16;13.15;;;6.85;;
16770;SDS011;8503;52.472;13.344;2022-12-24T07:04:40;10.65;;;6.60;;
16770;SDS011;8503;52.472;13.344;2022-12-24T07:06:03;10.93;;;7.13;;
16770;SDS011;8503;52.472;13.344;2022-12-24T07:07:27;15.55;;;7.30;;
16770;SDS011;8503;52.472;13.344;2022-12-24T07:08:52;14.23;;;7.20;;
16770;SDS011;8503;52.472;13.344;2022-12-24T07:10:16;14.00;;;7.13;;
16770;SDS011;8503;52.472;13.344;2022-12-24T07:11:40;10.95;;;6.65;;
16770;SDS011;8503;52.472;13.344;2022-12-24T07:13:03;12.32;;;7.22;;
16770;SDS011;8503;52.472;13.344;2022-12-24T07:14:26;10.13;;;6.60;;
16770;SDS011;8503;52.472;13.344;2022-12-24T07:15:55;14.73;;;7.63;;
16770;SDS011;8503;52.472;13.344;2022-12-24T07:17:18;10.55;;;6.72;;
16770;SDS011;8503;52.472;13.344;2022-12-24T07:18:42;13.95;;;5.95;;
16770;SDS011;8503;52.472;13.344;2022-12-24T07:20:06;13.88;;;6.88;;
16770;SDS011;8503;52.472;13.344;2022-12-24T07:21:31;13.75;;;7.28;;
16770;SDS011;8503;52.472;13.344;2022-12-24T07:22:54;11.57;;;6.35;;
16770;SDS011;8503;52.472;13.344;2022-12-24T07:24:18;11.25;;;6.35;;
16770;SDS011;8503;52.472;13.344;2022-12-24T07:25:42;9.27;;;5.80;;
16770;SDS011;8503;52.472;13.344;2022-12-24T07:27:04;10.65;;;6.30;;
16770;SDS011;8503;52.472;13.344;2022-12-24T07:28:29;9.55;;;5.97;;
16770;SDS011;8503;52.472;13.344;2022-12-24T07:29:51;11.98;;;6.47;;
16770;SDS011;8503;52.472;13.344;2022-12-24T07:31:15;11.38;;;6.63;;
16770;SDS011;8503;52.472;13.344;2022-12-24T07:32:38;11.70;;;6.93;;
16770;SDS011;8503;52.472;13.344;2022-12-24T07:34:02;10.70;;;6.63;;
16770;SDS011;8503;52.472;13.344;2022-12-24T07:35:25;9.90;;;6.03;;
16770;SDS011;8503;52.472;13.344;2022-12-24T07:36:49;11.68;;;7.10;;
16770;SDS011;8503;52.472;13.344;2022-12-24T07:38:12;11.75;;;6.95;;
16770;SDS011;8503;52.472;13.344;2022-12-24T07:39:36;12.65;;;7.20;;
16770;SDS011;8503;52.472;13.344;2022-12-24T07:41:00;14.88;;;7.53;;
16770;SDS011;8503;52.472;13.344;2022-12-24T07:42:23;12.15;;;6.68;;
16770;SDS011;8503;52.472;13.344;2022-12-24T07:43:46;12.05;;;7.43;;
16770;SDS011;8503;52.472;13.344;2022-12-24T07:45:09;12.35;;;6.85;;
16770;SDS011;8503;52.472;13.344;2022-12-24T07:46:33;9.90;;;6.32;;
16770;SDS011;8503;52.472;13.344;2022-12-24T07:47:57;12.23;;;6.95;;
16770;SDS011;8503;52.472;13.344;2022-12-24T07:49:20;12.48;;;7.47;;
16770;SDS011;8503;52.472;13.344;2022-12-24T07:50:44;13.05;;;7.45;;
16770;SDS011;8503;52.472;13.344;2022-12-24T07:52:06;11.23;;;6.75;;
16770;SDS011;8503;52.472;13.344;2022-12-24T07:53:30;13.30;;;7.78;;
16770;SDS011;8503;52.472;13.344;2022-12-24T07:54:54;11.07;;;6.20;;
16770;SDS011;8503;52.472;13.344;2022-12-24T07:56:18;13.73;;;7.25;;
16770;SDS011;8503;52.472;13.344;2022-12-24T07:57:41;14.35;;;7.30;;
16770;SDS011;8503;52.472;13.344;2022-12-24T07:59:05;13.45;;;6.72;;
16770;SDS011;8503;52.472;13.344;2022-12-24T08:00:28;17.23;;;7.97;;
16770;SDS011;8503;52.472;13.344;2022-12-24T08:01:52;11.15;;;6.72;;
16770;SDS011;8503;52.472;13.344;2022-12-24T08:03:16;13.27;;;6.63;;
16770;SDS011;8503;52.472;13.344;2022-12-24T08:04:40;10.52;;;6.32;;
16770;SDS011;8503;52.472;13.344;2022-12-24T08:06:04;12.35;;;6.25;;
16770;SDS011;8503;52.472;13.344;2022-12-24T08:07:27;14.35;;;6.70;;
16770;SDS011;8503;52.472;13.344;2022-12-24T08:08:50;10.82;;;6.50;;
16770;SDS011;8503;52.472;13.344;2022-12-24T08:10:15;10.45;;;6.70;;
16770;SDS011;8503;52.472;13.344;2022-12-24T08:11:38;11.80;;;6.90;;
16770;SDS011;8503;52.472;13.344;2022-12-24T08:13:11;12.98;;;6.60;;
16770;SDS011;8503;52.472;13.344;2022-12-24T08:14:35;13.07;;;7.68;;
16770;SDS011;8503;52.472;13.344;2022-12-24T08:15:59;13.55;;;6.68;;
16770;SDS011;8503;52.472;13.344;2022-12-24T08:17:22;12.80;;;6.63;;
16770;SDS011;8503;52.472;13.344;2022-12-24T08:18:52;12.23;;;6.75;;
16770;SDS011;8503;52.472;13.344;2022-12-24T08:20:15;11.25;;;6.35;;
16770;SDS011;8503;52.472;13.344;2022-12-24T08:21:39;12.95;;;7.15;;
16770;SDS011;8503;52.472;13.344;2022-12-24T08:23:02;11.68;;;7.07;;
16770;SDS011;8503;52.472;13.344;2022-12-24T08:24:26;13.35;;;6.93;;
16770;SDS011;8503;52.472;13.344;2022-12-24T08:25:50;12.52;;;7.55;;
16770;SDS011;8503;52.472;13.344;2022-12-24T08:27:13;12.35;;;6.95;;
16770;SDS011;8503;52.472;13.344;2022-12-24T08:28:36;14.00;;;6.97;;